Monday, June 18, 2018, 8:49 PM EDT
Back to Local

KFIT, Fitchburg, Fitchburg Municipal Airport

Location: Leominster, MA, United States Lat: 42.552
Local Time: 8:49 PM EDT ( 0:49 GMT) Lon: -71.756
Time Zone: US/Eastern Elev: 347 ft

Show me the last for .
Show Decoded

2018-06-18 20:34 METAR KFIT 190034Z AUTO 20005KT 3SM VCTS -RA BR SCT022 BKN043 BKN110 23/23 A2975
                 RMK AO2 LTG DSNT SW RAB10 TSB07E29 P0052 T02280228 =
2018-06-18 20:32 METAR KFIT 190032Z AUTO 19006KT 1 3/4SM VCTS -RA BR BKN022 BKN043 BKN110 23/23
                 A2975 RMK AO2 LTG DSNT SW RAB10 TSB07E29 P0052 T02280228 =
2018-06-18 20:29 METAR KFIT 190029Z AUTO 20007G22KT 1/2SM VCTS +RA FG BKN020 BKN043 BKN110 23/23
                 A2975 RMK AO2 LTG DSNT SW RAB10 TSB07E29 P0052 T02280228 =
2018-06-18 20:20 METAR KFIT 190020Z AUTO 26015G22KT 3/4SM +TSRA BR SCT016 BKN043 BKN060 23/23
                 A2979 RMK AO2 LTG DSNT SW RAB10 TSB07 PRESRR P0043 T02280228 =
2018-06-18 20:15 METAR KFIT 190015Z AUTO VRB06KT 1 3/4SM +TSRA BR SCT022 SCT044 BKN060 23/23
                 A2977 RMK AO2 LTG DSNT SW AND W RAB10 TSB07 PRESRR P0018 T02280228 =
2018-06-18 20:07 METAR KFIT 190007Z AUTO VRB03KT 7SM TS FEW044 SCT060 24/24 A2974 RMK AO2 LTG
                 DSNT SW AND W TSB07 T02390239 =
2018-06-18 19:52 METAR KFIT 182352Z AUTO VRB04KT 8SM CLR 24/24 A2972 RMK AO2 LTG DSNT S-W RAE2255
                 TSE2255 SLP064 P0000 60109 T02390239 10333 20217 58004 =
2018-06-18 19:01 METAR KFIT 182301Z AUTO 31007KT 10SM FEW041 SCT075 BKN100 22/22 A2978 RMK AO2
                 LTG DSNT ALQDS RAE2255 TSE2255 P0000 T02220222 =
2018-06-18 18:52 METAR KFIT 182252Z AUTO 35005KT 10SM -TSRA SCT024 BKN110 22/22 A2976 RMK AO2 PK
                 WND 29037/2221 LTG DSNT ALQDS RAB2154 TSB09 SLP076 P0109 T02220222 =
2018-06-18 18:48 METAR KFIT 182248Z AUTO VRB04KT 3SM -TSRA BR BKN022 BKN110 22/22 A2976 RMK AO2
                 PK WND 29037/2221 LTG DSNT ALQDS RAB2154 TSB09 P0109 =
2018-06-18 18:43 METAR KFIT 182243Z AUTO 19006G16KT 1 1/4SM +TSRA BR FEW011 BKN024 OVC110 22/22
                 A2975 RMK AO2 PK WND 29037/2221 LTG DSNT ALQDS RAB2154 TSB09 PRESFR P0109
                 T02220217 =
2018-06-18 18:41 METAR KFIT 182241Z AUTO 18007G16KT 3/4SM +TSRA BR FEW011 BKN024 OVC110 22/22
                 A2975 RMK AO2 PK WND 29037/2221 LTG DSNT ALQDS RAB2154 TSB09 PRESFR P0109
                 T02170217 =
2018-06-18 18:31 METAR KFIT 182231Z AUTO 26014G32KT 1/2SM +TSRA FG BKN010 OVC032 22/22 A2980 RMK
                 AO2 PK WND 29037/2221 LTG DSNT ALQDS RAB2154 TSB09 P0097 T02170217 =
2018-06-18 18:22 METAR KFIT 182222Z AUTO 29029G37KT 3/4SM +TSRA BR SQ BKN015 BKN032 OVC085 22/22
                 A2983 RMK AO2 PK WND 29037/2221 LTG DSNT ALQDS RAB2154 TSB09 PRESRR P0042
                 T02220222 =
2018-06-18 18:19 METAR KFIT 182219Z AUTO 26013G26KT 1 3/4SM +TSRA BR SCT011 BKN035 OVC085 22/22
                 A2980 RMK AO2 PK WND 29032/2208 LTG DSNT ALQDS RAB2154 TSB09 PRESRR P0019
                 T02220222 =
2018-06-18 18:15 METAR KFIT 182215Z AUTO 26013G32KT 3SM +TSRA BR FEW013 BKN044 OVC080 23/22 A2979
                 RMK AO2 PK WND 29032/2208 LTG DSNT ALQDS RAB2154 TSB09 PRESRR P0010 T02330222 =
2018-06-18 17:52 METAR KFIT 182152Z AUTO 23007KT 200V260 10SM VCTS FEW055 SCT070 BKN090 30/23
                 A2973 RMK AO2 LTG DSNT SW-N SLP066 T03000228 =
2018-06-18 16:52 METAR KFIT 182052Z AUTO 20011G19KT 10SM CLR 32/23 A2974 RMK AO2 SLP068 T03170228
                 58030 =
2018-06-18 15:52 METAR KFIT 181952Z AUTO 22012G20KT 10SM CLR 33/22 A2977 RMK AO2 SLP078 T03330222
                 =
2018-06-18 14:52 METAR KFIT 181852Z AUTO 23011KT 10SM FEW055 33/22 A2980 RMK AO2 SLP090 T03280217
                 =
2018-06-18 13:52 METAR KFIT 181752Z AUTO 22009KT 10SM CLR 32/22 A2983 RMK AO2 SLP098 T03170217
                 10317 20228 58024 =
2018-06-18 12:52 METAR KFIT 181652Z AUTO 22010G18KT 10SM CLR 31/21 A2986 RMK AO2 SLP109 T03060206
                 =
2018-06-18 11:52 METAR KFIT 181552Z AUTO 26008G15KT 10SM CLR 30/21 A2989 RMK AO2 SLP121 T03000206
                 =
2018-06-18 10:52 METAR KFIT 181452Z AUTO 24005G16KT 10SM CLR 29/20 A2990 RMK AO2 SLP123 T02940200
                 58019 =
2018-06-18 09:52 METAR KFIT 181352Z AUTO VRB05KT 10SM CLR 27/19 A2992 RMK AO2 SLP130 T02720189 =
2018-06-18 08:52 METAR KFIT 181252Z AUTO 16004KT 10SM CLR 24/18 A2994 RMK AO2 SLP136 T02390178 =
2018-06-18 07:52 METAR KFIT 181152Z AUTO 15004KT 10SM CLR 23/17 A2996 RMK AO2 SLP142 T02280167
                 10233 20189 58012 =
2018-06-18 06:52 METAR KFIT 181052Z AUTO 00000KT 10SM CLR 22/16 A2997 RMK AO2 SLP147 T02170156 =
2018-06-18 05:52 METAR KFIT 180952Z AUTO 00000KT 10SM CLR 19/15 A2998 RMK AO2 SLP151 T01890150 =
2018-06-18 04:52 METAR KFIT 180852Z AUTO 00000KT 10SM CLR 20/14 A2999 RMK AO2 SLP154 T02000144
                 56013 =
2018-06-18 03:52 METAR KFIT 180752Z AUTO 00000KT 10SM CLR 23/13 A2999 RMK AO2 SLP155 T02280133 =
2018-06-18 02:52 METAR KFIT 180652Z AUTO VRB05KT 10SM CLR 23/12 A3001 RMK AO2 SLP159 T02280117 =
2018-06-18 01:52 METAR KFIT 180552Z AUTO 25009G14KT 10SM CLR 23/11 A3003 RMK AO2 SLP167 T02330111
                 10250 20161 56003 =
2018-06-18 00:52 METAR KFIT 180452Z AUTO 20004KT 10SM CLR 22/12 A3003 RMK AO2 SLP167 T02170122
                 403170122 =
2018-06-17 23:52 METAR KFIT 180352Z AUTO 00000KT 10SM CLR 17/15 A3003 RMK AO2 SLP169 T01670150 =
2018-06-17 22:52 METAR KFIT 180252Z AUTO 00000KT 10SM CLR 18/15 A3004 RMK AO2 SLP171 T01830150
                 57006 =
2018-06-17 21:52 METAR KFIT 180152Z AUTO 00000KT 10SM CLR 21/15 A3005 RMK AO2 SLP175 T02060150 =
2018-06-17 20:52 METAR KFIT 180052Z AUTO 00000KT 10SM CLR 24/14 A3005 RMK AO2 SLP172 T02390139 =

Support USWX by starting your Amazon purchase here.